Terminal Aerodrome Forecast
Issued by NWS Twin Cities, MN

Home | Current Version | Previous Version | Graphics & Text | Print | Product List | Glossary On
Versions: 1 2 3 4 5 6 7 8 9 10 11 12 13 14 15 16 17 18 19 20 21 22 23 24 25 26 27 28 29 30 31 32 33
000
FTUS43 KMPX 241138
TAFMSP
TAF
KMSP 241138Z 2412/2518 14009KT 6SM BR OVC014
     FM241600 14012G18KT P6SM BKN018 OVC150
     FM241900 15013G20KT P6SM SCT020 OVC120
     FM250100 14010KT 3SM -SN BKN020 OVC090
     FM250300 15007KT 1SM -SN BR OVC015
     FM250900 19008KT P6SM OVC020
     FM251600 27012G23KT P6SM BKN030=

USA.gov is the U.S. government's official web portal to all federal, state and local government web resources and services.